sensor_id;sensor_type;location;lat;lon;timestamp;temperature;humidity
22925;DHT22;11628;51.072;3.712;2023-02-12T00:00:08;10.50;99.90
22925;DHT22;11628;51.072;3.712;2023-02-12T00:02:35;10.50;99.90
22925;DHT22;11628;51.072;3.712;2023-02-12T00:05:00;10.50;99.90
22925;DHT22;11628;51.072;3.712;2023-02-12T00:07:29;10.50;99.90
22925;DHT22;11628;51.072;3.712;2023-02-12T00:09:55;10.50;99.90
22925;DHT22;11628;51.072;3.712;2023-02-12T00:12:21;10.60;99.90
22925;DHT22;11628;51.072;3.712;2023-02-12T00:14:47;10.60;99.90
22925;DHT22;11628;51.072;3.712;2023-02-12T00:17:13;10.60;99.90
22925;DHT22;11628;51.072;3.712;2023-02-12T00:19:39;10.60;99.90
22925;DHT22;11628;51.072;3.712;2023-02-12T00:22:05;10.50;99.90
22925;DHT22;11628;51.072;3.712;2023-02-12T00:24:31;10.50;99.90
22925;DHT22;11628;51.072;3.712;2023-02-12T00:26:57;10.60;99.90
22925;DHT22;11628;51.072;3.712;2023-02-12T00:29:23;10.60;99.90
22925;DHT22;11628;51.072;3.712;2023-02-12T00:31:53;10.50;99.90
22925;DHT22;11628;51.072;3.712;2023-02-12T00:34:19;10.50;99.90
22925;DHT22;11628;51.072;3.712;2023-02-12T00:36:45;10.50;99.90
22925;DHT22;11628;51.072;3.712;2023-02-12T00:39:11;10.50;99.90
22925;DHT22;11628;51.072;3.712;2023-02-12T00:41:36;10.50;99.90
22925;DHT22;11628;51.072;3.712;2023-02-12T00:44:03;10.50;99.90
22925;DHT22;11628;51.072;3.712;2023-02-12T00:46:28;10.50;99.90
22925;DHT22;11628;51.072;3.712;2023-02-12T00:48:54;10.50;99.90
22925;DHT22;11628;51.072;3.712;2023-02-12T00:51:21;10.50;99.90
22925;DHT22;11628;51.072;3.712;2023-02-12T00:53:46;10.50;99.90
22925;DHT22;11628;51.072;3.712;2023-02-12T00:56:12;10.50;99.90
22925;DHT22;11628;51.072;3.712;2023-02-12T00:58:38;10.50;99.90
22925;DHT22;11628;51.072;3.712;2023-02-12T01:01:04;10.50;99.90
22925;DHT22;11628;51.072;3.712;2023-02-12T01:03:30;10.50;99.90
22925;DHT22;11628;51.072;3.712;2023-02-12T01:05:55;10.40;99.90
22925;DHT22;11628;51.072;3.712;2023-02-12T01:08:21;10.40;99.90
22925;DHT22;11628;51.072;3.712;2023-02-12T01:10:54;10.40;99.90
22925;DHT22;11628;51.072;3.712;2023-02-12T01:13:20;10.40;99.90
22925;DHT22;11628;51.072;3.712;2023-02-12T01:15:47;10.50;99.90
22925;DHT22;11628;51.072;3.712;2023-02-12T01:18:13;10.50;99.90
22925;DHT22;11628;51.072;3.712;2023-02-12T01:20:40;10.40;99.90
22925;DHT22;11628;51.072;3.712;2023-02-12T01:23:06;10.40;99.90
22925;DHT22;11628;51.072;3.712;2023-02-12T01:25:33;10.40;99.90
22925;DHT22;11628;51.072;3.712;2023-02-12T01:27:58;10.40;99.90
22925;DHT22;11628;51.072;3.712;2023-02-12T01:30:24;10.40;99.90
22925;DHT22;11628;51.072;3.712;2023-02-12T01:32:49;10.40;99.90
22925;DHT22;11628;51.072;3.712;2023-02-12T01:35:16;10.40;99.90
22925;DHT22;11628;51.072;3.712;2023-02-12T01:37:42;10.30;99.90
22925;DHT22;11628;51.072;3.712;2023-02-12T01:40:18;10.30;99.90
22925;DHT22;11628;51.072;3.712;2023-02-12T01:42:44;10.30;99.90
22925;DHT22;11628;51.072;3.712;2023-02-12T01:45:51;10.30;99.90
22925;DHT22;11628;51.072;3.712;2023-02-12T01:48:18;10.30;99.90
22925;DHT22;11628;51.072;3.712;2023-02-12T01:50:46;10.30;99.90
22925;DHT22;11628;51.072;3.712;2023-02-12T01:53:14;10.30;99.90
22925;DHT22;11628;51.072;3.712;2023-02-12T01:55:46;10.30;99.90
22925;DHT22;11628;51.072;3.712;2023-02-12T01:58:13;10.30;99.90
22925;DHT22;11628;51.072;3.712;2023-02-12T02:00:39;10.20;99.90
22925;DHT22;11628;51.072;3.712;2023-02-12T02:03:05;10.10;99.90
22925;DHT22;11628;51.072;3.712;2023-02-12T02:05:45;10.10;99.90
22925;DHT22;11628;51.072;3.712;2023-02-12T02:08:13;10.10;99.90
22925;DHT22;11628;51.072;3.712;2023-02-12T02:10:39;10.20;99.90
22925;DHT22;11628;51.072;3.712;2023-02-12T02:13:05;10.20;99.90
22925;DHT22;11628;51.072;3.712;2023-02-12T02:15:54;10.30;99.90
22925;DHT22;11628;51.072;3.712;2023-02-12T02:19:00;10.30;99.90
22925;DHT22;11628;51.072;3.712;2023-02-12T02:33:31;10.30;99.90
22925;DHT22;11628;51.072;3.712;2023-02-12T02:43:51;10.30;99.90
22925;DHT22;11628;51.072;3.712;2023-02-12T02:46:32;10.30;99.90
22925;DHT22;11628;51.072;3.712;2023-02-12T02:49:05;10.30;99.90
22925;DHT22;11628;51.072;3.712;2023-02-12T02:51:39;10.30;99.90
22925;DHT22;11628;51.072;3.712;2023-02-12T02:54:16;10.30;99.90
22925;DHT22;11628;51.072;3.712;2023-02-12T02:56:45;10.30;99.90
22925;DHT22;11628;51.072;3.712;2023-02-12T02:59:18;10.30;99.90
22925;DHT22;11628;51.072;3.712;2023-02-12T03:02:09;10.30;99.90
22925;DHT22;11628;51.072;3.712;2023-02-12T03:04:42;10.30;99.90
22925;DHT22;11628;51.072;3.712;2023-02-12T03:07:12;10.30;99.90
22925;DHT22;11628;51.072;3.712;2023-02-12T03:09:48;10.20;99.90
22925;DHT22;11628;51.072;3.712;2023-02-12T03:12:25;10.20;99.90
22925;DHT22;11628;51.072;3.712;2023-02-12T03:15:00;10.20;99.90
22925;DHT22;11628;51.072;3.712;2023-02-12T03:17:33;10.20;99.90
22925;DHT22;11628;51.072;3.712;2023-02-12T03:20:09;10.20;99.90
22925;DHT22;11628;51.072;3.712;2023-02-12T03:22:40;10.30;99.90
22925;DHT22;11628;51.072;3.712;2023-02-12T03:25:15;10.30;99.90
22925;DHT22;11628;51.072;3.712;2023-02-12T03:27:51;10.20;99.90
22925;DHT22;11628;51.072;3.712;2023-02-12T03:30:21;10.20;99.90
22925;DHT22;11628;51.072;3.712;2023-02-12T03:32:53;10.30;99.90
22925;DHT22;11628;51.072;3.712;2023-02-12T03:35:23;10.20;99.90
22925;DHT22;11628;51.072;3.712;2023-02-12T03:38:05;10.20;99.90
22925;DHT22;11628;51.072;3.712;2023-02-12T03:40:38;10.20;99.90
22925;DHT22;11628;51.072;3.712;2023-02-12T03:43:28;10.10;99.90
22925;DHT22;11628;51.072;3.712;2023-02-12T03:45:59;10.10;99.90
22925;DHT22;11628;51.072;3.712;2023-02-12T03:48:40;10.10;99.90
22925;DHT22;11628;51.072;3.712;2023-02-12T03:53:42;10.00;99.90
22925;DHT22;11628;51.072;3.712;2023-02-12T03:56:23;10.00;99.90
22925;DHT22;11628;51.072;3.712;2023-02-12T03:58:49;10.00;99.90
22925;DHT22;11628;51.072;3.712;2023-02-12T04:01:16;10.00;99.90
22925;DHT22;11628;51.072;3.712;2023-02-12T04:03:43;10.00;99.90
22925;DHT22;11628;51.072;3.712;2023-02-12T04:06:24;10.00;99.90
22925;DHT22;11628;51.072;3.712;2023-02-12T04:08:51;10.10;99.90
22925;DHT22;11628;51.072;3.712;2023-02-12T04:11:33;10.10;99.90
22925;DHT22;11628;51.072;3.712;2023-02-12T04:17:09;10.10;99.90
22925;DHT22;11628;51.072;3.712;2023-02-12T04:20:18;10.10;99.90
22925;DHT22;11628;51.072;3.712;2023-02-12T04:22:52;10.10;99.90
22925;DHT22;11628;51.072;3.712;2023-02-12T04:25:42;10.10;99.90
22925;DHT22;11628;51.072;3.712;2023-02-12T04:36:33;10.10;99.90
22925;DHT22;11628;51.072;3.712;2023-02-12T04:39:09;10.10;99.90
22925;DHT22;11628;51.072;3.712;2023-02-12T04:41:37;10.20;99.90
22925;DHT22;11628;51.072;3.712;2023-02-12T04:44:20;10.20;99.90
22925;DHT22;11628;51.072;3.712;2023-02-12T04:46:47;10.20;99.90
22925;DHT22;11628;51.072;3.712;2023-02-12T04:49:15;10.20;99.90
22925;DHT22;11628;51.072;3.712;2023-02-12T04:51:42;10.10;99.90
22925;DHT22;11628;51.072;3.712;2023-02-12T04:54:09;10.10;99.90
22925;DHT22;11628;51.072;3.712;2023-02-12T04:56:35;10.00;99.90
22925;DHT22;11628;51.072;3.712;2023-02-12T04:59:01;10.00;99.90
22925;DHT22;11628;51.072;3.712;2023-02-12T05:01:27;10.00;99.90
22925;DHT22;11628;51.072;3.712;2023-02-12T05:03:53;10.00;99.90
22925;DHT22;11628;51.072;3.712;2023-02-12T05:06:19;9.90;99.90
22925;DHT22;11628;51.072;3.712;2023-02-12T05:08:47;9.90;99.90
22925;DHT22;11628;51.072;3.712;2023-02-12T05:11:13;9.90;99.90
22925;DHT22;11628;51.072;3.712;2023-02-12T05:13:38;10.00;99.90
22925;DHT22;11628;51.072;3.712;2023-02-12T05:16:06;10.00;99.90
22925;DHT22;11628;51.072;3.712;2023-02-12T05:18:34;9.90;99.90
22925;DHT22;11628;51.072;3.712;2023-02-12T05:21:03;9.90;99.90
22925;DHT22;11628;51.072;3.712;2023-02-12T05:23:31;9.90;99.90
22925;DHT22;11628;51.072;3.712;2023-02-12T05:25:58;9.90;99.90
22925;DHT22;11628;51.072;3.712;2023-02-12T05:28:24;9.90;99.90
22925;DHT22;11628;51.072;3.712;2023-02-12T05:30:51;9.90;99.90
22925;DHT22;11628;51.072;3.712;2023-02-12T05:33:16;9.90;99.90
22925;DHT22;11628;51.072;3.712;2023-02-12T05:35:42;9.90;99.90
22925;DHT22;11628;51.072;3.712;2023-02-12T05:38:08;9.80;99.90
22925;DHT22;11628;51.072;3.712;2023-02-12T05:40:35;9.80;99.90
22925;DHT22;11628;51.072;3.712;2023-02-12T05:43:01;9.80;99.90
22925;DHT22;11628;51.072;3.712;2023-02-12T05:45:28;9.70;99.90
22925;DHT22;11628;51.072;3.712;2023-02-12T05:47:54;9.70;99.90
22925;DHT22;11628;51.072;3.712;2023-02-12T05:50:20;9.70;99.90
22925;DHT22;11628;51.072;3.712;2023-02-12T05:52:46;9.70;99.90
22925;DHT22;11628;51.072;3.712;2023-02-12T05:55:12;9.80;99.90
22925;DHT22;11628;51.072;3.712;2023-02-12T05:57:38;9.80;99.90
22925;DHT22;11628;51.072;3.712;2023-02-12T06:00:06;9.80;99.90
22925;DHT22;11628;51.072;3.712;2023-02-12T06:02:36;9.80;99.90
22925;DHT22;11628;51.072;3.712;2023-02-12T06:05:01;9.90;99.90
22925;DHT22;11628;51.072;3.712;2023-02-12T06:07:28;9.90;99.90
22925;DHT22;11628;51.072;3.712;2023-02-12T06:09:53;9.90;99.90
22925;DHT22;11628;51.072;3.712;2023-02-12T06:12:20;9.90;99.90
22925;DHT22;11628;51.072;3.712;2023-02-12T06:14:46;9.80;99.90
22925;DHT22;11628;51.072;3.712;2023-02-12T06:17:12;9.70;99.90
22925;DHT22;11628;51.072;3.712;2023-02-12T06:19:48;9.60;99.90
22925;DHT22;11628;51.072;3.712;2023-02-12T06:22:15;9.60;99.90
22925;DHT22;11628;51.072;3.712;2023-02-12T06:24:41;9.70;99.90
22925;DHT22;11628;51.072;3.712;2023-02-12T06:27:07;9.70;99.90
22925;DHT22;11628;51.072;3.712;2023-02-12T06:29:33;9.70;99.90
22925;DHT22;11628;51.072;3.712;2023-02-12T06:31:58;9.70;99.90
22925;DHT22;11628;51.072;3.712;2023-02-12T06:34:24;9.70;99.90
22925;DHT22;11628;51.072;3.712;2023-02-12T06:36:50;9.70;99.90
22925;DHT22;11628;51.072;3.712;2023-02-12T06:39:16;9.70;99.90
22925;DHT22;11628;51.072;3.712;2023-02-12T06:41:42;9.70;99.90
22925;DHT22;11628;51.072;3.712;2023-02-12T06:44:10;9.70;99.90
22925;DHT22;11628;51.072;3.712;2023-02-12T06:46:37;9.70;99.90
22925;DHT22;11628;51.072;3.712;2023-02-12T06:49:02;9.70;99.90
22925;DHT22;11628;51.072;3.712;2023-02-12T06:51:29;9.70;99.90
22925;DHT22;11628;51.072;3.712;2023-02-12T06:53:56;9.70;99.90
22925;DHT22;11628;51.072;3.712;2023-02-12T06:56:23;9.70;99.90
22925;DHT22;11628;51.072;3.712;2023-02-12T06:58:58;9.70;99.90
22925;DHT22;11628;51.072;3.712;2023-02-12T07:01:27;9.80;99.90
22925;DHT22;11628;51.072;3.712;2023-02-12T07:04:00;9.80;99.90
22925;DHT22;11628;51.072;3.712;2023-02-12T07:06:28;9.60;99.90
22925;DHT22;11628;51.072;3.712;2023-02-12T07:08:55;9.50;99.90
22925;DHT22;11628;51.072;3.712;2023-02-12T07:11:26;9.50;99.90
22925;DHT22;11628;51.072;3.712;2023-02-12T07:13:52;9.60;99.90
22925;DHT22;11628;51.072;3.712;2023-02-12T07:16:19;9.70;99.90
22925;DHT22;11628;51.072;3.712;2023-02-12T07:18:46;9.70;99.90
22925;DHT22;11628;51.072;3.712;2023-02-12T07:21:13;9.80;99.90
22925;DHT22;11628;51.072;3.712;2023-02-12T07:23:39;9.80;99.90
22925;DHT22;11628;51.072;3.712;2023-02-12T07:26:09;9.80;99.90
22925;DHT22;11628;51.072;3.712;2023-02-12T07:28:35;9.80;99.90
22925;DHT22;11628;51.072;3.712;2023-02-12T07:31:17;9.80;99.90
22925;DHT22;11628;51.072;3.712;2023-02-12T07:33:43;9.50;99.90
22925;DHT22;11628;51.072;3.712;2023-02-12T07:36:16;9.40;99.90
22925;DHT22;11628;51.072;3.712;2023-02-12T07:38:42;9.30;99.90
22925;DHT22;11628;51.072;3.712;2023-02-12T07:41:14;9.10;99.90
22925;DHT22;11628;51.072;3.712;2023-02-12T07:43:41;9.00;99.90
22925;DHT22;11628;51.072;3.712;2023-02-12T07:46:13;9.10;99.90
22925;DHT22;11628;51.072;3.712;2023-02-12T07:48:41;9.20;99.90
22925;DHT22;11628;51.072;3.712;2023-02-12T07:51:10;9.30;99.90
22925;DHT22;11628;51.072;3.712;2023-02-12T07:53:37;9.40;99.90
22925;DHT22;11628;51.072;3.712;2023-02-12T07:56:13;9.40;99.90
22925;DHT22;11628;51.072;3.712;2023-02-12T07:58:42;9.30;99.90
22925;DHT22;11628;51.072;3.712;2023-02-12T08:03:38;9.20;99.90
22925;DHT22;11628;51.072;3.712;2023-02-12T08:06:09;9.20;99.90
22925;DHT22;11628;51.072;3.712;2023-02-12T08:08:35;9.20;99.90
22925;DHT22;11628;51.072;3.712;2023-02-12T08:11:04;9.20;99.90
22925;DHT22;11628;51.072;3.712;2023-02-12T08:13:31;9.20;99.90
22925;DHT22;11628;51.072;3.712;2023-02-12T08:16:06;9.10;99.90
22925;DHT22;11628;51.072;3.712;2023-02-12T08:18:33;9.10;99.90
22925;DHT22;11628;51.072;3.712;2023-02-12T08:21:08;9.20;99.90
22925;DHT22;11628;51.072;3.712;2023-02-12T08:23:34;9.20;99.90
22925;DHT22;11628;51.072;3.712;2023-02-12T08:28:37;9.20;99.90
22925;DHT22;11628;51.072;3.712;2023-02-12T08:31:15;9.20;99.90
22925;DHT22;11628;51.072;3.712;2023-02-12T08:33:43;9.30;99.90
22925;DHT22;11628;51.072;3.712;2023-02-12T08:36:13;9.50;99.90
22925;DHT22;11628;51.072;3.712;2023-02-12T08:38:40;9.60;99.90
22925;DHT22;11628;51.072;3.712;2023-02-12T08:41:11;9.60;99.90
22925;DHT22;11628;51.072;3.712;2023-02-12T08:43:38;9.80;99.90
22925;DHT22;11628;51.072;3.712;2023-02-12T08:46:06;9.90;99.90
22925;DHT22;11628;51.072;3.712;2023-02-12T08:48:33;9.90;99.90
22925;DHT22;11628;51.072;3.712;2023-02-12T08:51:08;9.80;99.90
22925;DHT22;11628;51.072;3.712;2023-02-12T08:53:35;9.80;99.90
22925;DHT22;11628;51.072;3.712;2023-02-12T08:56:01;9.80;99.90
22925;DHT22;11628;51.072;3.712;2023-02-12T08:58:27;9.90;99.90
22925;DHT22;11628;51.072;3.712;2023-02-12T09:00:53;9.90;99.90
22925;DHT22;11628;51.072;3.712;2023-02-12T09:03:18;9.80;99.90
22925;DHT22;11628;51.072;3.712;2023-02-12T09:05:44;9.90;99.90
22925;DHT22;11628;51.072;3.712;2023-02-12T09:08:10;10.00;99.90
22925;DHT22;11628;51.072;3.712;2023-02-12T09:10:43;10.10;99.90
22925;DHT22;11628;51.072;3.712;2023-02-12T09:13:11;10.20;99.90
22925;DHT22;11628;51.072;3.712;2023-02-12T09:15:42;10.20;99.90
22925;DHT22;11628;51.072;3.712;2023-02-12T09:18:09;10.10;99.90
22925;DHT22;11628;51.072;3.712;2023-02-12T09:20:41;10.00;99.90
22925;DHT22;11628;51.072;3.712;2023-02-12T09:23:09;10.00;99.90
22925;DHT22;11628;51.072;3.712;2023-02-12T09:25:40;9.90;99.90
22925;DHT22;11628;51.072;3.712;2023-02-12T09:28:06;9.80;99.90
22925;DHT22;11628;51.072;3.712;2023-02-12T09:30:36;9.70;99.90
22925;DHT22;11628;51.072;3.712;2023-02-12T09:33:03;9.60;99.90
22925;DHT22;11628;51.072;3.712;2023-02-12T09:35:29;9.50;99.90
22925;DHT22;11628;51.072;3.712;2023-02-12T09:37:55;9.50;99.90
22925;DHT22;11628;51.072;3.712;2023-02-12T09:45:49;9.80;99.90
22925;DHT22;11628;51.072;3.712;2023-02-12T09:48:47;9.90;99.90
22925;DHT22;11628;51.072;3.712;2023-02-12T09:51:18;9.90;99.90
22925;DHT22;11628;51.072;3.712;2023-02-12T09:53:45;9.70;99.90
22925;DHT22;11628;51.072;3.712;2023-02-12T09:56:17;9.70;99.90
22925;DHT22;11628;51.072;3.712;2023-02-12T09:58:48;9.70;99.90
22925;DHT22;11628;51.072;3.712;2023-02-12T10:01:18;9.80;99.90
22925;DHT22;11628;51.072;3.712;2023-02-12T10:03:47;9.90;99.90
22925;DHT22;11628;51.072;3.712;2023-02-12T10:06:18;10.00;99.90
22925;DHT22;11628;51.072;3.712;2023-02-12T10:27:16;10.10;99.90
22925;DHT22;11628;51.072;3.712;2023-02-12T10:29:44;10.10;99.90
22925;DHT22;11628;51.072;3.712;2023-02-12T10:32:24;10.20;99.90
22925;DHT22;11628;51.072;3.712;2023-02-12T10:34:52;10.40;99.90
22925;DHT22;11628;51.072;3.712;2023-02-12T10:37:31;10.40;99.90
22925;DHT22;11628;51.072;3.712;2023-02-12T10:40:26;10.60;99.90
22925;DHT22;11628;51.072;3.712;2023-02-12T10:42:55;10.70;99.90
22925;DHT22;11628;51.072;3.712;2023-02-12T10:45:38;11.00;99.90
22925;DHT22;11628;51.072;3.712;2023-02-12T10:48:29;11.50;99.90
22925;DHT22;11628;51.072;3.712;2023-02-12T10:53:44;12.20;99.90
22925;DHT22;11628;51.072;3.712;2023-02-12T10:58:38;12.40;99.90
22925;DHT22;11628;51.072;3.712;2023-02-12T11:01:19;12.30;99.90
22925;DHT22;11628;51.072;3.712;2023-02-12T11:03:46;12.40;99.90
22925;DHT22;11628;51.072;3.712;2023-02-12T11:06:17;12.60;99.90
22925;DHT22;11628;51.072;3.712;2023-02-12T11:08:44;12.70;99.90
22925;DHT22;11628;51.072;3.712;2023-02-12T11:13:45;12.30;99.90
22925;DHT22;11628;51.072;3.712;2023-02-12T11:16:13;12.60;99.90
22925;DHT22;11628;51.072;3.712;2023-02-12T11:18:41;12.80;99.90
22925;DHT22;11628;51.072;3.712;2023-02-12T11:21:11;12.90;99.90
22925;DHT22;11628;51.072;3.712;2023-02-12T11:23:43;13.00;99.90
22925;DHT22;11628;51.072;3.712;2023-02-12T11:29:20;12.90;99.90
22925;DHT22;11628;51.072;3.712;2023-02-12T11:32:05;12.90;99.90
22925;DHT22;11628;51.072;3.712;2023-02-12T11:34:33;13.20;99.90
22925;DHT22;11628;51.072;3.712;2023-02-12T11:37:01;13.40;99.90
22925;DHT22;11628;51.072;3.712;2023-02-12T11:39:31;13.30;99.90
22925;DHT22;11628;51.072;3.712;2023-02-12T11:42:03;13.30;99.90
22925;DHT22;11628;51.072;3.712;2023-02-12T11:44:37;13.50;99.90
22925;DHT22;11628;51.072;3.712;2023-02-12T11:47:10;13.60;99.90
22925;DHT22;11628;51.072;3.712;2023-02-12T11:52:32;13.80;99.90
22925;DHT22;11628;51.072;3.712;2023-02-12T11:55:04;13.80;99.90
22925;DHT22;11628;51.072;3.712;2023-02-12T11:58:01;13.90;99.90
22925;DHT22;11628;51.072;3.712;2023-02-12T12:00:28;13.80;99.90
22925;DHT22;11628;51.072;3.712;2023-02-12T12:03:10;13.70;99.90
22925;DHT22;11628;51.072;3.712;2023-02-12T12:05:44;13.90;99.90
22925;DHT22;11628;51.072;3.712;2023-02-12T12:08:26;13.90;99.90
22925;DHT22;11628;51.072;3.712;2023-02-12T12:11:04;13.50;99.90
22925;DHT22;11628;51.072;3.712;2023-02-12T12:13:38;12.70;99.90
22925;DHT22;11628;51.072;3.712;2023-02-12T12:16:21;12.60;99.90
22925;DHT22;11628;51.072;3.712;2023-02-12T12:19:17;13.10;99.90
22925;DHT22;11628;51.072;3.712;2023-02-12T12:30:21;13.90;99.90
22925;DHT22;11628;51.072;3.712;2023-02-12T12:32:50;13.90;99.90
22925;DHT22;11628;51.072;3.712;2023-02-12T12:35:21;14.10;99.90
22925;DHT22;11628;51.072;3.712;2023-02-12T12:38:06;14.20;99.90
22925;DHT22;11628;51.072;3.712;2023-02-12T12:43:19;13.40;99.90
22925;DHT22;11628;51.072;3.712;2023-02-12T12:54:23;13.40;99.90
22925;DHT22;11628;51.072;3.712;2023-02-12T12:57:00;13.50;99.90
22925;DHT22;11628;51.072;3.712;2023-02-12T13:10:59;12.40;99.90
22925;DHT22;11628;51.072;3.712;2023-02-12T13:13:44;13.10;99.90
22925;DHT22;11628;51.072;3.712;2023-02-12T13:16:28;14.10;99.90
22925;DHT22;11628;51.072;3.712;2023-02-12T13:19:14;14.80;99.90
22925;DHT22;11628;51.072;3.712;2023-02-12T13:21:46;14.90;99.90
22925;DHT22;11628;51.072;3.712;2023-02-12T13:26:54;15.00;99.90
22925;DHT22;11628;51.072;3.712;2023-02-12T13:29:38;14.40;99.90
22925;DHT22;11628;51.072;3.712;2023-02-12T13:32:11;14.60;99.90
22925;DHT22;11628;51.072;3.712;2023-02-12T13:34:38;14.90;99.90
22925;DHT22;11628;51.072;3.712;2023-02-12T13:37:05;15.30;99.90
22925;DHT22;11628;51.072;3.712;2023-02-12T13:39:38;15.70;99.90
22925;DHT22;11628;51.072;3.712;2023-02-12T13:45:04;15.80;99.90
22925;DHT22;11628;51.072;3.712;2023-02-12T13:51:23;14.50;99.90
22925;DHT22;11628;51.072;3.712;2023-02-12T14:02:03;13.20;99.90
22925;DHT22;11628;51.072;3.712;2023-02-12T14:04:32;13.60;99.90
22925;DHT22;11628;51.072;3.712;2023-02-12T14:12:37;14.30;99.90
22925;DHT22;11628;51.072;3.712;2023-02-12T14:15:09;13.90;99.90
22925;DHT22;11628;51.072;3.712;2023-02-12T14:17:53;13.30;99.90
22925;DHT22;11628;51.072;3.712;2023-02-12T14:20:34;13.00;99.90
22925;DHT22;11628;51.072;3.712;2023-02-12T14:23:22;13.10;99.90
22925;DHT22;11628;51.072;3.712;2023-02-12T14:26:00;13.40;99.90
22925;DHT22;11628;51.072;3.712;2023-02-12T14:33:52;13.50;99.90
22925;DHT22;11628;51.072;3.712;2023-02-12T14:36:38;13.30;99.90
22925;DHT22;11628;51.072;3.712;2023-02-12T14:41:45;12.80;99.90
22925;DHT22;11628;51.072;3.712;2023-02-12T14:46:55;12.70;99.90
22925;DHT22;11628;51.072;3.712;2023-02-12T14:49:25;12.80;99.90
22925;DHT22;11628;51.072;3.712;2023-02-12T14:52:05;12.50;99.90
22925;DHT22;11628;51.072;3.712;2023-02-12T14:59:47;12.20;99.90
22925;DHT22;11628;51.072;3.712;2023-02-12T15:02:22;12.30;99.90
22925;DHT22;11628;51.072;3.712;2023-02-12T15:04:50;12.50;99.90
22925;DHT22;11628;51.072;3.712;2023-02-12T15:07:23;12.50;99.90
22925;DHT22;11628;51.072;3.712;2023-02-12T15:10:03;12.40;99.90
22925;DHT22;11628;51.072;3.712;2023-02-12T15:12:42;12.30;99.90
22925;DHT22;11628;51.072;3.712;2023-02-12T15:15:39;12.40;99.90
22925;DHT22;11628;51.072;3.712;2023-02-12T15:18:28;12.50;99.90
22925;DHT22;11628;51.072;3.712;2023-02-12T15:21:04;12.60;99.90
22925;DHT22;11628;51.072;3.712;2023-02-12T15:23:42;12.60;99.90
22925;DHT22;11628;51.072;3.712;2023-02-12T15:26:21;12.70;99.90
22925;DHT22;11628;51.072;3.712;2023-02-12T15:28:50;12.60;99.90
22925;DHT22;11628;51.072;3.712;2023-02-12T15:31:19;12.50;99.90
22925;DHT22;11628;51.072;3.712;2023-02-12T15:33:49;12.20;99.90
22925;DHT22;11628;51.072;3.712;2023-02-12T15:36:26;12.20;99.90
22925;DHT22;11628;51.072;3.712;2023-02-12T15:38:59;12.20;99.90
22925;DHT22;11628;51.072;3.712;2023-02-12T15:41:35;12.10;99.90
22925;DHT22;11628;51.072;3.712;2023-02-12T15:44:16;12.20;99.90
22925;DHT22;11628;51.072;3.712;2023-02-12T15:46:54;12.50;99.90
22925;DHT22;11628;51.072;3.712;2023-02-12T15:49:23;12.60;99.90
22925;DHT22;11628;51.072;3.712;2023-02-12T15:51:50;12.60;99.90
22925;DHT22;11628;51.072;3.712;2023-02-12T15:54:18;12.40;99.90
22925;DHT22;11628;51.072;3.712;2023-02-12T15:56:45;12.00;99.90
22925;DHT22;11628;51.072;3.712;2023-02-12T15:59:22;11.40;99.90
22925;DHT22;11628;51.072;3.712;2023-02-12T16:04:19;11.10;99.90
22925;DHT22;11628;51.072;3.712;2023-02-12T16:06:45;11.20;99.90
22925;DHT22;11628;51.072;3.712;2023-02-12T16:09:31;11.10;99.90
22925;DHT22;11628;51.072;3.712;2023-02-12T16:12:02;11.00;99.90
22925;DHT22;11628;51.072;3.712;2023-02-12T16:14:40;11.00;99.90
22925;DHT22;11628;51.072;3.712;2023-02-12T16:17:33;10.80;99.90
22925;DHT22;11628;51.072;3.712;2023-02-12T16:22:44;10.90;99.90
22925;DHT22;11628;51.072;3.712;2023-02-12T16:25:21;10.90;99.90
22925;DHT22;11628;51.072;3.712;2023-02-12T16:27:57;10.90;99.90
22925;DHT22;11628;51.072;3.712;2023-02-12T16:30:27;11.10;99.90
22925;DHT22;11628;51.072;3.712;2023-02-12T16:32:54;11.20;99.90
22925;DHT22;11628;51.072;3.712;2023-02-12T16:35:27;11.20;99.90
22925;DHT22;11628;51.072;3.712;2023-02-12T16:43:39;11.20;99.90
22925;DHT22;11628;51.072;3.712;2023-02-12T16:46:06;11.20;99.90
22925;DHT22;11628;51.072;3.712;2023-02-12T16:48:42;11.20;99.90
22925;DHT22;11628;51.072;3.712;2023-02-12T16:51:28;11.20;99.90
22925;DHT22;11628;51.072;3.712;2023-02-12T16:53:56;11.30;99.90
22925;DHT22;11628;51.072;3.712;2023-02-12T16:56:25;11.20;99.90
22925;DHT22;11628;51.072;3.712;2023-02-12T16:58:53;10.90;99.90
22925;DHT22;11628;51.072;3.712;2023-02-12T17:01:27;10.70;99.90
22925;DHT22;11628;51.072;3.712;2023-02-12T17:03:54;10.80;99.90
22925;DHT22;11628;51.072;3.712;2023-02-12T17:06:22;11.00;99.90
22925;DHT22;11628;51.072;3.712;2023-02-12T17:08:48;11.00;99.90
22925;DHT22;11628;51.072;3.712;2023-02-12T17:11:15;11.10;99.90
22925;DHT22;11628;51.072;3.712;2023-02-12T17:13:43;11.10;99.90
22925;DHT22;11628;51.072;3.712;2023-02-12T17:16:10;11.00;99.90
22925;DHT22;11628;51.072;3.712;2023-02-12T17:18:36;10.90;99.90
22925;DHT22;11628;51.072;3.712;2023-02-12T17:21:13;10.80;99.90
22925;DHT22;11628;51.072;3.712;2023-02-12T17:23:41;10.70;99.90
22925;DHT22;11628;51.072;3.712;2023-02-12T17:26:07;10.60;99.90
22925;DHT22;11628;51.072;3.712;2023-02-12T17:28:34;10.50;99.90
22925;DHT22;11628;51.072;3.712;2023-02-12T17:31:00;10.50;99.90
22925;DHT22;11628;51.072;3.712;2023-02-12T17:33:30;10.50;99.90
22925;DHT22;11628;51.072;3.712;2023-02-12T17:35:58;10.50;99.90
22925;DHT22;11628;51.072;3.712;2023-02-12T17:38:24;10.50;99.90
22925;DHT22;11628;51.072;3.712;2023-02-12T17:40:50;10.60;99.90
22925;DHT22;11628;51.072;3.712;2023-02-12T17:43:16;10.80;99.90
22925;DHT22;11628;51.072;3.712;2023-02-12T17:45:42;10.60;99.90
22925;DHT22;11628;51.072;3.712;2023-02-12T17:48:10;10.60;99.90
22925;DHT22;11628;51.072;3.712;2023-02-12T17:50:37;10.60;99.90
22925;DHT22;11628;51.072;3.712;2023-02-12T17:53:03;10.70;99.90
22925;DHT22;11628;51.072;3.712;2023-02-12T17:55:29;10.80;99.90
22925;DHT22;11628;51.072;3.712;2023-02-12T17:57:55;10.80;99.90
22925;DHT22;11628;51.072;3.712;2023-02-12T18:00:21;10.80;99.90
22925;DHT22;11628;51.072;3.712;2023-02-12T18:02:47;10.90;99.90
22925;DHT22;11628;51.072;3.712;2023-02-12T18:05:14;10.80;99.90
22925;DHT22;11628;51.072;3.712;2023-02-12T18:07:40;10.90;99.90
22925;DHT22;11628;51.072;3.712;2023-02-12T18:10:07;11.00;99.90
22925;DHT22;11628;51.072;3.712;2023-02-12T18:12:34;11.10;99.90
22925;DHT22;11628;51.072;3.712;2023-02-12T18:15:02;11.10;99.90
22925;DHT22;11628;51.072;3.712;2023-02-12T18:17:28;11.00;99.90
22925;DHT22;11628;51.072;3.712;2023-02-12T18:19:54;11.00;99.90
22925;DHT22;11628;51.072;3.712;2023-02-12T18:22:20;11.10;99.90
22925;DHT22;11628;51.072;3.712;2023-02-12T18:24:46;11.00;99.90
22925;DHT22;11628;51.072;3.712;2023-02-12T18:27:14;10.90;99.90
22925;DHT22;11628;51.072;3.712;2023-02-12T18:29:40;10.90;99.90
22925;DHT22;11628;51.072;3.712;2023-02-12T18:32:06;11.00;99.90
22925;DHT22;11628;51.072;3.712;2023-02-12T18:34:32;11.00;99.90